createdAt,value
2018-11-03T00:01:40.437Z,3.80
2018-11-03T00:04:09.317Z,3.80
2018-11-03T00:06:40.281Z,3.80
2018-11-03T00:09:10.390Z,3.80
2018-11-03T00:11:39.413Z,3.80
2018-11-03T00:14:16.824Z,3.80
2018-11-03T00:16:45.368Z,3.70
2018-11-03T00:19:13.910Z,3.70
2018-11-03T00:21:42.537Z,3.80
2018-11-03T00:24:11.084Z,3.70
2018-11-03T00:26:39.558Z,3.70
2018-11-03T00:29:08.441Z,3.70
2018-11-03T00:31:36.881Z,3.70
2018-11-03T00:34:06.903Z,3.70
2018-11-03T00:36:35.362Z,3.60
2018-11-03T00:39:06.308Z,3.60
2018-11-03T00:41:34.838Z,3.50
2018-11-03T00:44:03.332Z,3.50
2018-11-03T00:46:31.831Z,3.40
2018-11-03T00:49:00.293Z,3.40
2018-11-03T00:51:28.806Z,3.40
2018-11-03T00:53:57.265Z,3.40
2018-11-03T00:56:28.435Z,3.40
2018-11-03T00:58:57.005Z,3.40
2018-11-03T01:01:25.466Z,3.40
2018-11-03T01:03:53.931Z,3.40
2018-11-03T01:06:22.588Z,3.30
2018-11-03T01:08:51.091Z,3.30
2018-11-03T01:11:19.593Z,3.20
2018-11-03T01:13:48.057Z,3.20
2018-11-03T01:16:16.536Z,3.20
2018-11-03T01:18:44.973Z,3.10
2018-11-03T01:21:13.430Z,3.20
2018-11-03T01:23:41.920Z,3.10
2018-11-03T01:26:10.574Z,3.10
2018-11-03T01:28:41.344Z,3.00
2018-11-03T01:31:10.706Z,3.00
2018-11-03T01:33:39.161Z,3.00
2018-11-03T01:36:07.825Z,3.00
2018-11-03T01:38:36.495Z,3.00
2018-11-03T01:41:04.975Z,3.10
2018-11-03T01:43:33.426Z,3.10
2018-11-03T01:46:01.883Z,3.10
2018-11-03T01:48:30.328Z,3.10
2018-11-03T01:50:58.799Z,3.00
2018-11-03T01:53:27.270Z,3.00
2018-11-03T01:55:55.730Z,3.00
2018-11-03T01:58:24.177Z,2.90
2018-11-03T02:00:52.634Z,2.90
2018-11-03T02:03:21.077Z,2.80
2018-11-03T02:05:49.555Z,2.90
2018-11-03T02:08:17.983Z,2.90
2018-11-03T02:10:46.658Z,2.90
2018-11-03T02:13:15.143Z,2.80
2018-11-03T02:15:43.581Z,2.80
2018-11-03T02:18:12.046Z,2.80
2018-11-03T02:20:40.474Z,2.80
2018-11-03T02:23:08.926Z,2.90
2018-11-03T02:25:37.374Z,2.90
2018-11-03T02:28:06.594Z,2.80
2018-11-03T02:30:35.030Z,2.80
2018-11-03T02:33:03.506Z,2.80
2018-11-03T02:35:31.925Z,2.80
2018-11-03T02:38:00.379Z,2.80
2018-11-03T02:40:28.824Z,2.70
2018-11-03T02:42:57.445Z,2.70
2018-11-03T02:45:25.918Z,2.70
2018-11-03T02:47:54.370Z,2.70
2018-11-03T02:50:22.825Z,2.70
2018-11-03T02:52:51.292Z,2.70
2018-11-03T02:55:19.904Z,2.60
2018-11-03T02:57:48.370Z,2.60
2018-11-03T03:00:16.833Z,2.60
2018-11-03T03:02:45.506Z,2.60
2018-11-03T03:05:14.127Z,2.50
2018-11-03T03:07:42.600Z,2.50
2018-11-03T03:10:12.350Z,2.50
2018-11-03T03:12:40.988Z,2.50
2018-11-03T03:15:11.335Z,2.50
2018-11-03T03:17:40.107Z,2.50
2018-11-03T03:20:10.263Z,2.50
2018-11-03T03:22:38.693Z,2.40
2018-11-03T03:25:08.232Z,2.40
2018-11-03T03:27:36.796Z,2.40
2018-11-03T03:30:05.578Z,2.40
2018-11-03T03:32:34.042Z,2.40
2018-11-03T03:35:02.526Z,2.40
2018-11-03T03:37:30.992Z,2.40
2018-11-03T03:39:59.458Z,2.40
2018-11-03T03:42:28.446Z,2.50
2018-11-03T03:44:57.126Z,2.40
2018-11-03T03:47:25.926Z,2.40
2018-11-03T03:49:54.385Z,2.30
2018-11-03T03:52:22.831Z,2.30
2018-11-03T03:54:51.314Z,2.30
2018-11-03T03:57:20.125Z,2.30
2018-11-03T03:59:48.612Z,2.20
2018-11-03T04:02:17.050Z,2.20
2018-11-03T04:04:45.503Z,2.20
2018-11-03T04:07:13.966Z,2.20
2018-11-03T04:09:42.638Z,2.20
2018-11-03T04:12:12.267Z,2.30
2018-11-03T04:14:40.756Z,2.20
2018-11-03T04:17:09.216Z,2.20
2018-11-03T04:19:37.853Z,2.20
2018-11-03T04:22:06.397Z,2.20
2018-11-03T04:24:35.017Z,2.10
2018-11-03T04:27:03.505Z,2.10
2018-11-03T04:29:31.970Z,2.10
2018-11-03T04:32:00.447Z,2.10
2018-11-03T04:34:28.891Z,2.10
2018-11-03T04:36:57.362Z,2.10
2018-11-03T04:39:25.841Z,2.00
2018-11-03T04:41:54.283Z,2.00
2018-11-03T04:44:22.830Z,1.90
2018-11-03T04:46:51.658Z,1.90
2018-11-03T04:49:20.126Z,1.90
2018-11-03T04:51:48.594Z,1.90
2018-11-03T04:54:17.078Z,2.00
2018-11-03T04:56:45.720Z,2.00
2018-11-03T04:59:14.173Z,2.00
2018-11-03T05:01:42.626Z,2.00
2018-11-03T05:04:11.270Z,2.00
2018-11-03T05:06:39.718Z,2.00
2018-11-03T05:09:09.371Z,2.00
2018-11-03T05:11:39.227Z,2.00
2018-11-03T05:14:09.391Z,2.00
2018-11-03T05:16:38.117Z,1.90
2018-11-03T05:19:07.337Z,1.90
2018-11-03T05:21:35.901Z,1.90
2018-11-03T05:24:04.431Z,1.90
2018-11-03T05:26:32.857Z,1.90
2018-11-03T05:29:01.371Z,1.90
2018-11-03T05:31:29.980Z,1.90
2018-11-03T05:33:58.649Z,1.90
2018-11-03T05:36:27.265Z,1.90
2018-11-03T05:38:55.922Z,1.90
2018-11-03T05:41:24.395Z,1.90
2018-11-03T05:43:52.883Z,1.90
2018-11-03T05:46:21.538Z,1.90
2018-11-03T05:48:50.149Z,1.90
2018-11-03T05:51:18.598Z,1.90
2018-11-03T05:53:47.053Z,1.80
2018-11-03T05:56:15.478Z,1.80
2018-11-03T05:58:43.943Z,1.80
2018-11-03T06:01:12.578Z,1.80
2018-11-03T06:03:41.038Z,1.80
2018-11-03T06:06:09.479Z,1.80
2018-11-03T06:08:38.007Z,1.80
2018-11-03T06:11:06.771Z,1.70
2018-11-03T06:13:35.226Z,1.70
2018-11-03T06:16:03.658Z,1.70
2018-11-03T06:18:32.318Z,1.70
2018-11-03T06:21:00.886Z,1.70
2018-11-03T06:23:29.377Z,1.70
2018-11-03T06:25:58.007Z,1.70
2018-11-03T06:28:26.445Z,1.80
2018-11-03T06:30:54.911Z,1.90
2018-11-03T06:33:23.350Z,2.00
2018-11-03T06:35:51.818Z,2.00
2018-11-03T06:38:20.283Z,2.10
2018-11-03T06:40:48.942Z,2.10
2018-11-03T06:43:18.306Z,2.10
2018-11-03T06:45:46.775Z,2.10
2018-11-03T06:48:15.231Z,2.20
2018-11-03T06:50:43.878Z,2.20
2018-11-03T06:53:12.326Z,2.30
2018-11-03T06:55:41.437Z,2.30
2018-11-03T06:58:09.882Z,2.30
2018-11-03T07:00:38.447Z,2.30
2018-11-03T07:03:06.901Z,2.40
2018-11-03T07:05:36.913Z,2.30
2018-11-03T07:08:06.110Z,2.40
2018-11-03T07:10:34.606Z,2.50
2018-11-03T07:13:04.038Z,2.60
2018-11-03T07:15:32.752Z,2.70
2018-11-03T07:18:01.302Z,2.70
2018-11-03T07:20:29.843Z,2.80
2018-11-03T07:22:58.510Z,2.90
2018-11-03T07:25:27.213Z,3.10
2018-11-03T07:27:55.662Z,3.20
2018-11-03T07:30:24.186Z,3.30
2018-11-03T07:32:52.677Z,3.40
2018-11-03T07:35:21.137Z,3.50
2018-11-03T07:37:49.597Z,3.60
2018-11-03T07:40:18.046Z,3.70
2018-11-03T07:42:47.084Z,3.80
2018-11-03T07:45:15.533Z,3.90
2018-11-03T07:47:44.526Z,4.00
2018-11-03T07:50:13.438Z,4.00
2018-11-03T07:52:42.358Z,4.10
2018-11-03T07:55:12.290Z,4.20
2018-11-03T07:57:40.951Z,4.30
2018-11-03T08:00:11.583Z,4.30
2018-11-03T08:02:40.284Z,4.40
2018-11-03T08:05:09.962Z,4.40
2018-11-03T08:07:38.636Z,4.50
2018-11-03T08:10:09.590Z,4.50
2018-11-03T08:12:38.274Z,4.50
2018-11-03T08:15:07.678Z,4.60
2018-11-03T08:17:36.337Z,4.50
2018-11-03T08:20:05.630Z,4.50
2018-11-03T08:22:34.103Z,4.60
2018-11-03T08:25:02.615Z,4.60
2018-11-03T08:27:31.059Z,4.60
2018-11-03T08:30:00.096Z,4.60
2018-11-03T08:32:28.566Z,4.60
2018-11-03T08:34:57.006Z,4.60
2018-11-03T08:37:25.492Z,4.70
2018-11-03T08:39:53.990Z,4.70
2018-11-03T08:42:22.465Z,4.70
2018-11-03T08:44:52.108Z,4.80
2018-11-03T08:47:25.462Z,4.90
2018-11-03T08:49:53.914Z,5.00
2018-11-03T08:52:22.389Z,5.00
2018-11-03T08:54:50.903Z,5.00
2018-11-03T08:57:20.350Z,5.10
2018-11-03T08:59:50.394Z,5.20
2018-11-03T09:02:18.895Z,5.20
2018-11-03T09:04:47.362Z,5.30
2018-11-03T09:07:15.842Z,5.40
2018-11-03T09:09:44.512Z,5.50
2018-11-03T09:12:12.954Z,5.50
2018-11-03T09:14:41.513Z,5.60
2018-11-03T09:17:10.320Z,5.70
2018-11-03T09:19:38.803Z,5.80
2018-11-03T09:22:07.310Z,6.00
2018-11-03T09:24:35.945Z,6.20
2018-11-03T09:27:04.868Z,6.20
2018-11-03T09:29:33.487Z,6.30
2018-11-03T09:32:02.197Z,6.40
2018-11-03T09:34:30.870Z,6.40
2018-11-03T09:36:59.484Z,6.40
2018-11-03T09:39:28.644Z,6.40
2018-11-03T09:41:57.154Z,6.30
2018-11-03T09:44:25.647Z,6.30
2018-11-03T09:46:54.153Z,6.40
2018-11-03T09:49:22.627Z,6.50
2018-11-03T09:51:51.297Z,6.50
2018-11-03T09:54:19.808Z,6.60
2018-11-03T09:56:48.355Z,6.60
2018-11-03T09:59:16.914Z,6.60
2018-11-03T10:01:45.515Z,6.70
2018-11-03T10:04:14.004Z,6.80
2018-11-03T10:07:45.754Z,6.90
2018-11-03T10:10:15.798Z,6.90
2018-11-03T10:12:44.277Z,7.00
2018-11-03T10:15:14.294Z,7.00
2018-11-03T10:17:43.201Z,6.90
2018-11-03T10:20:12.077Z,6.90
2018-11-03T10:22:40.595Z,6.90
2018-11-03T10:25:12.026Z,6.90
2018-11-03T10:27:40.771Z,7.00
2018-11-03T10:30:11.539Z,7.00
2018-11-03T10:32:40.959Z,7.10
2018-11-03T10:35:10.909Z,7.20
2018-11-03T10:37:39.613Z,7.30
2018-11-03T10:40:11.501Z,7.40
2018-11-03T10:42:40.238Z,7.40
2018-11-03T10:45:10.707Z,7.50
2018-11-03T10:47:39.874Z,7.60
2018-11-03T10:50:11.290Z,7.70
2018-11-03T10:52:40.675Z,7.70
2018-11-03T10:55:10.369Z,7.70
2018-11-03T10:57:39.241Z,7.80
2018-11-03T11:00:15.735Z,7.90
2018-11-03T11:02:49.410Z,7.90
2018-11-03T11:05:23.138Z,7.90
2018-11-03T11:07:56.779Z,8.00
2018-11-03T11:10:30.478Z,8.00
2018-11-03T11:13:02.570Z,8.00
2018-11-03T11:15:32.865Z,8.00
2018-11-03T11:18:01.662Z,8.00
2018-11-03T11:20:30.135Z,8.00
2018-11-03T11:22:58.615Z,8.00
2018-11-03T11:25:27.303Z,8.00
2018-11-03T11:27:56.818Z,8.10
2018-11-03T11:30:27.640Z,8.10
2018-11-03T11:32:56.985Z,8.10
2018-11-03T11:35:25.448Z,8.20
2018-11-03T11:37:54.117Z,8.20
2018-11-03T11:40:22.583Z,8.20
2018-11-03T11:42:51.270Z,8.20
2018-11-03T11:45:19.910Z,8.20
2018-11-03T11:47:49.577Z,8.30
2018-11-03T11:50:18.194Z,8.30
2018-11-03T11:52:47.687Z,8.30
2018-11-03T11:55:16.147Z,8.40
2018-11-03T11:57:45.161Z,8.40
2018-11-03T12:00:13.665Z,8.40
2018-11-03T12:02:42.111Z,8.40
2018-11-03T12:05:10.774Z,8.50
2018-11-03T12:07:39.231Z,8.50
2018-11-03T12:10:07.789Z,8.60
2018-11-03T12:12:36.957Z,8.60
2018-11-03T12:15:06.693Z,8.70
2018-11-03T12:17:37.954Z,8.70
2018-11-03T12:20:06.768Z,8.70
2018-11-03T12:22:35.313Z,8.70
2018-11-03T12:25:03.963Z,8.70
2018-11-03T12:27:32.534Z,8.70
2018-11-03T12:30:01.038Z,8.70
2018-11-03T12:32:29.513Z,8.70
2018-11-03T12:34:58.144Z,8.70
2018-11-03T12:37:26.629Z,8.70
2018-11-03T12:39:55.120Z,8.70
2018-11-03T12:42:23.562Z,8.70
2018-11-03T12:44:52.033Z,8.70
2018-11-03T12:47:20.694Z,8.70
2018-11-03T12:49:49.231Z,8.70
2018-11-03T12:52:17.862Z,8.70
2018-11-03T12:54:46.325Z,8.80
2018-11-03T12:57:14.981Z,8.80
2018-11-03T12:59:43.413Z,8.80
2018-11-03T13:02:11.860Z,8.80
2018-11-03T13:04:40.415Z,8.80
2018-11-03T13:07:09.439Z,8.80
2018-11-03T13:09:37.994Z,8.80
2018-11-03T13:12:06.578Z,8.80
2018-11-03T13:14:35.181Z,8.80
2018-11-03T13:17:04.835Z,8.80
2018-11-03T13:19:33.296Z,8.80
2018-11-03T13:24:35.695Z,8.80
2018-11-03T13:27:05.155Z,8.80
2018-11-03T13:29:33.614Z,8.80
2018-11-03T13:32:02.095Z,8.80
2018-11-03T13:34:30.523Z,8.90
2018-11-03T13:36:58.997Z,8.80
2018-11-03T13:39:27.499Z,8.90
2018-11-03T13:41:56.122Z,8.90
2018-11-03T13:44:24.586Z,8.90
2018-11-03T13:46:53.050Z,8.90
2018-11-03T13:49:21.489Z,8.90
2018-11-03T13:51:50.004Z,8.90
2018-11-03T13:54:18.446Z,8.80
2018-11-03T13:56:46.931Z,8.80
2018-11-03T13:59:15.568Z,8.90
2018-11-03T14:01:44.857Z,8.90
2018-11-03T14:04:13.417Z,8.90
2018-11-03T14:06:41.873Z,8.90
2018-11-03T14:09:11.269Z,8.90
2018-11-03T14:11:39.931Z,8.90
2018-11-03T14:14:08.426Z,9.00
2018-11-03T14:16:36.906Z,8.90
2018-11-03T14:19:36.111Z,8.90
2018-11-03T14:22:04.930Z,8.80
2018-11-03T14:24:33.550Z,8.80
2018-11-03T14:27:02.700Z,8.70
2018-11-03T14:29:31.191Z,8.70
2018-11-03T14:31:59.850Z,8.70
2018-11-03T14:34:28.342Z,8.70
2018-11-03T14:36:56.822Z,8.70
2018-11-03T14:39:25.568Z,8.70
2018-11-03T14:41:54.609Z,8.70
2018-11-03T14:44:23.146Z,8.70
2018-11-03T14:46:52.011Z,8.60
2018-11-03T14:49:20.634Z,8.50
2018-11-03T14:51:49.091Z,8.50
2018-11-03T14:54:17.726Z,8.40
2018-11-03T14:56:48.055Z,8.50
2018-11-03T14:59:16.594Z,8.50
2018-11-03T15:01:45.490Z,8.40
2018-11-03T15:04:17.003Z,8.30
2018-11-03T15:06:45.474Z,8.30
2018-11-03T15:09:14.854Z,8.20
2018-11-03T15:11:43.298Z,8.20
2018-11-03T15:14:11.825Z,8.20
2018-11-03T15:16:42.909Z,8.10
2018-11-03T15:19:11.424Z,8.00
2018-11-03T15:21:40.985Z,7.80
2018-11-03T15:24:09.453Z,7.70
2018-11-03T15:26:37.964Z,7.70
2018-11-03T15:29:06.634Z,7.60
2018-11-03T15:31:40.715Z,7.50
2018-11-03T15:34:09.362Z,7.40
2018-11-03T15:36:37.872Z,7.30
2018-11-03T15:39:06.693Z,7.30
2018-11-03T15:41:35.206Z,7.10
2018-11-03T15:44:04.245Z,7.00
2018-11-03T15:46:32.779Z,6.90
2018-11-03T15:49:02.262Z,6.80
2018-11-03T15:51:30.744Z,6.80
2018-11-03T15:53:59.166Z,6.70
2018-11-03T15:56:27.605Z,6.60
2018-11-03T15:58:56.054Z,6.50
2018-11-03T16:01:24.523Z,6.40
2018-11-03T16:03:52.974Z,6.40
2018-11-03T16:06:21.422Z,6.30
2018-11-03T16:08:49.894Z,6.30
2018-11-03T16:11:18.353Z,6.30
2018-11-03T16:13:46.807Z,6.20
2018-11-03T16:16:15.904Z,6.20
2018-11-03T16:18:44.371Z,6.10
2018-11-03T16:21:12.818Z,6.00
2018-11-03T16:23:42.025Z,5.90
2018-11-03T16:26:10.499Z,5.90
2018-11-03T16:28:40.241Z,5.80
2018-11-03T16:31:08.778Z,5.80
2018-11-03T16:33:37.369Z,5.70
2018-11-03T16:36:06.157Z,5.70
2018-11-03T16:38:34.715Z,5.60
2018-11-03T16:41:03.085Z,5.60
2018-11-03T16:43:31.542Z,5.50
2018-11-03T16:45:59.996Z,5.50
2018-11-03T16:48:28.997Z,5.40
2018-11-03T16:50:57.490Z,5.30
2018-11-03T16:53:26.481Z,5.30
2018-11-03T16:55:54.942Z,5.20
2018-11-03T16:58:23.409Z,5.20
2018-11-03T17:00:52.061Z,5.20
2018-11-03T17:03:20.526Z,5.10
2018-11-03T17:05:49.001Z,5.10
2018-11-03T17:08:17.548Z,5.10
2018-11-03T17:10:46.030Z,5.10
2018-11-03T17:13:15.051Z,5.00
2018-11-03T17:15:44.072Z,4.90
2018-11-03T17:18:12.534Z,4.90
2018-11-03T17:20:41.035Z,4.80
2018-11-03T17:23:09.518Z,4.80
2018-11-03T17:25:38.037Z,4.80
2018-11-03T17:28:06.561Z,4.80
2018-11-03T17:30:35.032Z,4.70
2018-11-03T17:33:03.503Z,4.70
2018-11-03T17:35:31.970Z,4.70
2018-11-03T17:38:00.421Z,4.70
2018-11-03T17:40:29.238Z,4.60
2018-11-03T17:42:57.674Z,4.60
2018-11-03T17:45:26.938Z,4.60
2018-11-03T17:47:55.415Z,4.50
2018-11-03T17:50:23.874Z,4.50
2018-11-03T17:52:52.341Z,4.50
2018-11-03T17:55:20.830Z,4.50
2018-11-03T17:57:49.286Z,4.50
2018-11-03T18:00:17.968Z,4.50
2018-11-03T18:02:47.023Z,4.50
2018-11-03T18:05:16.314Z,4.50
2018-11-03T18:07:44.772Z,4.50
2018-11-03T18:10:13.593Z,4.50
2018-11-03T18:12:42.689Z,4.50
2018-11-03T18:15:12.396Z,4.40
2018-11-03T18:17:41.161Z,4.40
2018-11-03T18:20:10.510Z,4.40
2018-11-03T18:22:39.222Z,4.40
2018-11-03T18:25:08.177Z,4.40
2018-11-03T18:27:37.357Z,4.40
2018-11-03T18:30:07.330Z,4.30
2018-11-03T18:32:36.150Z,4.30
2018-11-03T18:35:04.954Z,4.30
2018-11-03T18:37:33.468Z,4.30
2018-11-03T18:40:02.064Z,4.20
2018-11-03T18:42:30.505Z,4.20
2018-11-03T18:44:58.942Z,4.20
2018-11-03T18:47:28.062Z,4.10
2018-11-03T18:49:56.519Z,4.10
2018-11-03T18:52:24.998Z,4.10
2018-11-03T18:54:53.478Z,4.10
2018-11-03T18:57:21.898Z,4.00
2018-11-03T18:59:50.353Z,4.00
2018-11-03T19:02:19.178Z,4.00
2018-11-03T19:04:47.762Z,4.00
2018-11-03T19:07:16.182Z,4.00
2018-11-03T19:09:44.651Z,4.00
2018-11-03T19:12:13.078Z,4.00
2018-11-03T19:14:41.522Z,4.00
2018-11-03T19:17:10.078Z,3.90
2018-11-03T19:19:38.616Z,3.90
2018-11-03T19:22:07.066Z,3.90
2018-11-03T19:24:35.545Z,3.90
2018-11-03T19:27:04.357Z,3.80
2018-11-03T19:29:32.873Z,3.80
2018-11-03T19:32:01.452Z,3.80
2018-11-03T19:34:30.100Z,3.70
2018-11-03T19:36:58.565Z,3.70
2018-11-03T19:39:27.016Z,3.70
2018-11-03T19:41:55.522Z,3.70
2018-11-03T19:44:24.000Z,3.70
2018-11-03T19:46:52.459Z,3.80
2018-11-03T19:49:20.942Z,3.80
2018-11-03T19:51:49.889Z,3.80
2018-11-03T19:54:18.426Z,3.70
2018-11-03T19:56:46.899Z,3.70
2018-11-03T19:59:15.339Z,3.70
2018-11-03T20:01:43.823Z,3.70
2018-11-03T20:04:12.258Z,3.70
2018-11-03T20:06:40.715Z,3.70
2018-11-03T20:09:09.166Z,3.70
2018-11-03T20:11:37.657Z,3.70
2018-11-03T20:14:06.150Z,3.70
2018-11-03T20:16:34.758Z,3.60
2018-11-03T20:19:03.207Z,3.60
2018-11-03T20:21:31.662Z,3.60
2018-11-03T20:24:00.130Z,3.60
2018-11-03T20:26:28.591Z,3.60
2018-11-03T20:28:57.018Z,3.50
2018-11-03T20:31:25.464Z,3.50
2018-11-03T20:33:53.904Z,3.50
2018-11-03T20:36:22.365Z,3.50
2018-11-03T20:38:50.807Z,3.40
2018-11-03T20:41:19.278Z,3.40
2018-11-03T20:43:47.761Z,3.30
2018-11-03T20:46:16.206Z,3.30
2018-11-03T20:48:44.633Z,3.30
2018-11-03T20:51:13.142Z,3.30
2018-11-03T20:53:41.853Z,3.30
2018-11-03T20:56:10.477Z,3.20
2018-11-03T20:58:38.965Z,3.20
2018-11-03T21:01:07.406Z,3.20
2018-11-03T21:03:35.877Z,3.20
2018-11-03T21:06:04.731Z,3.10
2018-11-03T21:08:33.196Z,3.20
2018-11-03T21:11:01.662Z,3.10
2018-11-03T21:13:30.113Z,3.10
2018-11-03T21:15:58.578Z,3.10
2018-11-03T21:18:27.666Z,3.10
2018-11-03T21:20:56.351Z,3.00
2018-11-03T21:23:24.985Z,3.00
2018-11-03T21:25:53.605Z,3.00
2018-11-03T21:28:22.074Z,3.00
2018-11-03T21:30:50.534Z,3.00
2018-11-03T21:33:19.072Z,2.90
2018-11-03T21:35:47.998Z,2.80
2018-11-03T21:38:16.514Z,2.80
2018-11-03T21:40:45.130Z,2.80
2018-11-03T21:43:13.592Z,2.70
2018-11-03T21:45:42.022Z,2.70
2018-11-03T21:48:10.522Z,2.70
2018-11-03T21:50:39.010Z,2.70
2018-11-03T21:53:07.434Z,2.70
2018-11-03T21:55:35.891Z,2.70
2018-11-03T21:58:04.674Z,2.70
2018-11-03T22:00:33.137Z,2.70
2018-11-03T22:03:01.644Z,2.70
2018-11-03T22:05:30.103Z,2.70
2018-11-03T22:07:58.538Z,2.60
2018-11-03T22:10:27.024Z,2.60
2018-11-03T22:12:55.473Z,2.60
2018-11-03T22:15:23.965Z,2.60
2018-11-03T22:17:52.989Z,2.60
2018-11-03T22:20:21.496Z,2.60
2018-11-03T22:22:49.951Z,2.60
2018-11-03T22:25:18.441Z,2.60
2018-11-03T22:27:46.945Z,2.50
2018-11-03T22:30:15.555Z,2.60
2018-11-03T22:32:44.016Z,2.60
2018-11-03T22:35:12.471Z,2.50
2018-11-03T22:37:40.926Z,2.60
2018-11-03T22:40:10.530Z,2.50
2018-11-03T22:42:39.183Z,2.50
2018-11-03T22:45:08.010Z,2.50
2018-11-03T22:47:36.797Z,2.50
2018-11-03T22:50:05.545Z,2.40
2018-11-03T22:52:34.086Z,2.30
2018-11-03T22:55:02.711Z,2.30
2018-11-03T22:57:31.171Z,2.30
2018-11-03T22:59:59.634Z,2.30
2018-11-03T23:02:28.138Z,2.30
2018-11-03T23:04:56.585Z,2.30
2018-11-03T23:07:25.057Z,2.20
2018-11-03T23:09:53.542Z,2.10
2018-11-03T23:12:22.003Z,2.00
2018-11-03T23:14:50.657Z,2.00
2018-11-03T23:17:19.106Z,2.00
2018-11-03T23:19:47.611Z,2.00
2018-11-03T23:22:16.195Z,2.00
2018-11-03T23:24:44.800Z,2.10
2018-11-03T23:27:13.238Z,2.10
2018-11-03T23:29:41.753Z,2.10
2018-11-03T23:32:10.363Z,2.10
2018-11-03T23:34:38.841Z,2.10
2018-11-03T23:37:07.602Z,2.10
2018-11-03T23:39:36.079Z,2.10
2018-11-03T23:42:04.614Z,2.00
2018-11-03T23:44:33.086Z,2.00
2018-11-03T23:47:01.535Z,2.00
2018-11-03T23:49:30.049Z,2.00
2018-11-03T23:51:58.478Z,2.00
2018-11-03T23:54:26.902Z,2.00
2018-11-03T23:56:55.710Z,2.00
2018-11-03T23:59:24.244Z,1.90
